sensor_id;sensor_type;location;lat;lon;timestamp;pressure;altitude;pressure_sealevel;temperature;humidity
73600;BME280;61877;48.246;9.220;2023-03-20T00:00:26;94335.50;;;4.50;97.11
73600;BME280;61877;48.246;9.220;2023-03-20T00:02:52;94325.63;;;4.37;96.92
73600;BME280;61877;48.246;9.220;2023-03-20T00:05:22;94339.28;;;4.30;97.97
73600;BME280;61877;48.246;9.220;2023-03-20T00:07:50;94337.53;;;4.26;97.46
73600;BME280;61877;48.246;9.220;2023-03-20T00:10:17;94334.75;;;4.17;97.85
73600;BME280;61877;48.246;9.220;2023-03-20T00:12:44;94339.13;;;4.08;97.76
73600;BME280;61877;48.246;9.220;2023-03-20T00:15:25;94338.91;;;3.91;97.45
73600;BME280;61877;48.246;9.220;2023-03-20T00:17:52;94336.69;;;3.79;97.70
73600;BME280;61877;48.246;9.220;2023-03-20T00:20:18;94338.97;;;3.67;97.92
73600;BME280;61877;48.246;9.220;2023-03-20T00:22:44;94334.19;;;3.51;97.16
73600;BME280;61877;48.246;9.220;2023-03-20T00:25:13;94336.69;;;3.42;98.01
73600;BME280;61877;48.246;9.220;2023-03-20T00:27:39;94333.59;;;3.35;98.63
73600;BME280;61877;48.246;9.220;2023-03-20T00:30:15;94336.31;;;3.30;98.96
73600;BME280;61877;48.246;9.220;2023-03-20T00:32:45;94336.66;;;3.24;98.41
73600;BME280;61877;48.246;9.220;2023-03-20T00:35:18;94343.63;;;3.20;99.02
73600;BME280;61877;48.246;9.220;2023-03-20T00:37:45;94350.56;;;3.16;98.60
73600;BME280;61877;48.246;9.220;2023-03-20T00:40:11;94355.34;;;3.14;99.11
73600;BME280;61877;48.246;9.220;2023-03-20T00:42:38;94353.50;;;3.14;99.27
73600;BME280;61877;48.246;9.220;2023-03-20T00:45:07;94348.13;;;3.19;99.59
73600;BME280;61877;48.246;9.220;2023-03-20T00:47:38;94355.44;;;3.27;99.53
73600;BME280;61877;48.246;9.220;2023-03-20T00:50:15;94350.81;;;3.38;98.93
73600;BME280;61877;48.246;9.220;2023-03-20T00:52:42;94349.94;;;3.42;98.31
73600;BME280;61877;48.246;9.220;2023-03-20T00:55:08;94350.47;;;3.44;98.13
73600;BME280;61877;48.246;9.220;2023-03-20T00:57:41;94353.75;;;3.36;98.11
73600;BME280;61877;48.246;9.220;2023-03-20T01:00:22;94348.00;;;3.29;98.57
73600;BME280;61877;48.246;9.220;2023-03-20T01:02:50;94349.16;;;3.23;98.38
73600;BME280;61877;48.246;9.220;2023-03-20T01:05:18;94346.75;;;3.22;98.89
73600;BME280;61877;48.246;9.220;2023-03-20T01:07:44;94345.66;;;3.28;99.22
73600;BME280;61877;48.246;9.220;2023-03-20T01:10:13;94351.16;;;3.31;98.34
73600;BME280;61877;48.246;9.220;2023-03-20T01:12:40;94356.13;;;3.38;98.12
73600;BME280;61877;48.246;9.220;2023-03-20T01:15:16;94357.09;;;3.42;97.58
73600;BME280;61877;48.246;9.220;2023-03-20T01:17:42;94355.69;;;3.49;97.56
73600;BME280;61877;48.246;9.220;2023-03-20T01:20:15;94362.28;;;3.52;97.62
73600;BME280;61877;48.246;9.220;2023-03-20T01:22:43;94358.78;;;3.56;98.09
73600;BME280;61877;48.246;9.220;2023-03-20T01:25:12;94364.56;;;3.58;97.94
73600;BME280;61877;48.246;9.220;2023-03-20T01:27:38;94363.84;;;3.71;99.27
73600;BME280;61877;48.246;9.220;2023-03-20T01:30:16;94364.94;;;3.70;97.81
73600;BME280;61877;48.246;9.220;2023-03-20T01:32:42;94358.00;;;3.74;98.40
73600;BME280;61877;48.246;9.220;2023-03-20T01:35:11;94356.03;;;3.80;98.19
73600;BME280;61877;48.246;9.220;2023-03-20T01:37:37;94355.25;;;3.79;97.62
73600;BME280;61877;48.246;9.220;2023-03-20T01:40:12;94356.75;;;3.85;97.53
73600;BME280;61877;48.246;9.220;2023-03-20T01:42:41;94352.47;;;3.89;97.98
73600;BME280;61877;48.246;9.220;2023-03-20T01:45:14;94356.38;;;3.92;98.13
73600;BME280;61877;48.246;9.220;2023-03-20T01:47:41;94363.69;;;4.00;98.28
73600;BME280;61877;48.246;9.220;2023-03-20T01:50:29;94350.13;;;4.02;97.83
73600;BME280;61877;48.246;9.220;2023-03-20T01:53:02;94359.97;;;4.01;97.56
73600;BME280;61877;48.246;9.220;2023-03-20T01:55:30;94359.25;;;3.95;96.92
73600;BME280;61877;48.246;9.220;2023-03-20T01:58:01;94359.13;;;3.87;96.94
73600;BME280;61877;48.246;9.220;2023-03-20T02:00:27;94359.03;;;3.73;97.37
73600;BME280;61877;48.246;9.220;2023-03-20T02:02:53;94354.41;;;3.65;97.59
73600;BME280;61877;48.246;9.220;2023-03-20T02:05:21;94356.91;;;3.57;97.99
73600;BME280;61877;48.246;9.220;2023-03-20T02:07:57;94355.69;;;3.49;98.25
73600;BME280;61877;48.246;9.220;2023-03-20T02:10:24;94356.81;;;3.43;98.76
73600;BME280;61877;48.246;9.220;2023-03-20T02:12:51;94357.31;;;3.45;99.07
73600;BME280;61877;48.246;9.220;2023-03-20T02:15:18;94363.50;;;3.41;98.46
73600;BME280;61877;48.246;9.220;2023-03-20T02:17:44;94366.94;;;3.41;98.50
73600;BME280;61877;48.246;9.220;2023-03-20T02:20:17;94368.28;;;3.39;98.41
73600;BME280;61877;48.246;9.220;2023-03-20T02:23:28;94371.91;;;3.48;97.85
73600;BME280;61877;48.246;9.220;2023-03-20T02:26:24;94373.63;;;3.57;98.28
73600;BME280;61877;48.246;9.220;2023-03-20T02:29:20;94366.84;;;3.65;98.91
73600;BME280;61877;48.246;9.220;2023-03-20T02:35:13;94368.47;;;3.66;98.09
73600;BME280;61877;48.246;9.220;2023-03-20T02:38:01;94366.03;;;3.69;98.52
73600;BME280;61877;48.246;9.220;2023-03-20T02:40:32;94362.84;;;3.67;97.83
73600;BME280;61877;48.246;9.220;2023-03-20T02:43:07;94367.38;;;3.67;97.59
73600;BME280;61877;48.246;9.220;2023-03-20T02:45:43;94369.72;;;3.68;98.28
73600;BME280;61877;48.246;9.220;2023-03-20T02:48:15;94374.56;;;3.66;97.46
73600;BME280;61877;48.246;9.220;2023-03-20T02:50:49;94373.91;;;3.74;97.32
73600;BME280;61877;48.246;9.220;2023-03-20T02:53:28;94377.53;;;3.78;97.00
73600;BME280;61877;48.246;9.220;2023-03-20T02:56:03;94371.88;;;3.85;97.15
73600;BME280;61877;48.246;9.220;2023-03-20T02:58:38;94376.06;;;3.91;95.79
73600;BME280;61877;48.246;9.220;2023-03-20T03:01:10;94374.75;;;3.88;96.56
73600;BME280;61877;48.246;9.220;2023-03-20T03:03:43;94380.78;;;3.75;96.12
73600;BME280;61877;48.246;9.220;2023-03-20T03:06:14;94376.41;;;3.66;96.91
73600;BME280;61877;48.246;9.220;2023-03-20T03:08:47;94378.97;;;3.52;97.29
73600;BME280;61877;48.246;9.220;2023-03-20T03:11:14;94378.69;;;3.54;97.25
73600;BME280;61877;48.246;9.220;2023-03-20T03:13:42;94375.81;;;3.50;97.41
73600;BME280;61877;48.246;9.220;2023-03-20T03:16:12;94380.06;;;3.51;97.50
73600;BME280;61877;48.246;9.220;2023-03-20T03:18:41;94382.66;;;3.56;97.34
73600;BME280;61877;48.246;9.220;2023-03-20T03:21:10;94381.34;;;3.54;96.85
73600;BME280;61877;48.246;9.220;2023-03-20T03:23:40;94384.88;;;3.49;96.59
73600;BME280;61877;48.246;9.220;2023-03-20T03:26:11;94378.47;;;3.50;97.49
73600;BME280;61877;48.246;9.220;2023-03-20T03:28:42;94376.41;;;3.47;97.44
73600;BME280;61877;48.246;9.220;2023-03-20T03:31:12;94382.50;;;3.48;97.88
73600;BME280;61877;48.246;9.220;2023-03-20T03:33:42;94387.81;;;3.48;97.38
73600;BME280;61877;48.246;9.220;2023-03-20T03:36:13;94388.28;;;3.50;96.97
73600;BME280;61877;48.246;9.220;2023-03-20T03:38:44;94386.50;;;3.45;97.51
73600;BME280;61877;48.246;9.220;2023-03-20T03:41:21;94393.25;;;3.38;97.44
73600;BME280;61877;48.246;9.220;2023-03-20T03:43:55;94395.66;;;3.34;97.64
73600;BME280;61877;48.246;9.220;2023-03-20T03:46:27;94395.66;;;3.34;98.39
73600;BME280;61877;48.246;9.220;2023-03-20T03:48:57;94397.22;;;3.35;98.40
73600;BME280;61877;48.246;9.220;2023-03-20T03:51:25;94403.03;;;3.37;97.61
73600;BME280;61877;48.246;9.220;2023-03-20T03:53:58;94394.59;;;3.54;97.78
73600;BME280;61877;48.246;9.220;2023-03-20T03:56:33;94403.38;;;3.54;96.56
73600;BME280;61877;48.246;9.220;2023-03-20T03:59:03;94402.28;;;3.55;96.73
73600;BME280;61877;48.246;9.220;2023-03-20T04:01:32;94407.38;;;3.52;97.09
73600;BME280;61877;48.246;9.220;2023-03-20T04:04:00;94415.28;;;3.75;95.26
73600;BME280;61877;48.246;9.220;2023-03-20T04:06:28;94410.91;;;3.66;95.65
73600;BME280;61877;48.246;9.220;2023-03-20T04:08:54;94404.78;;;3.65;97.14
73600;BME280;61877;48.246;9.220;2023-03-20T04:11:22;94402.28;;;3.55;96.94
73600;BME280;61877;48.246;9.220;2023-03-20T04:13:51;94404.94;;;3.55;97.70
73600;BME280;61877;48.246;9.220;2023-03-20T04:16:18;94406.53;;;3.56;97.70
73600;BME280;61877;48.246;9.220;2023-03-20T04:18:44;94404.94;;;3.55;97.74
73600;BME280;61877;48.246;9.220;2023-03-20T04:21:10;94406.53;;;3.56;97.53
73600;BME280;61877;48.246;9.220;2023-03-20T04:23:37;94410.00;;;3.52;97.82
73600;BME280;61877;48.246;9.220;2023-03-20T04:26:03;94412.91;;;3.74;96.98
73600;BME280;61877;48.246;9.220;2023-03-20T04:28:33;94415.84;;;3.72;96.81
73600;BME280;61877;48.246;9.220;2023-03-20T04:31:00;94413.47;;;3.71;97.00
73600;BME280;61877;48.246;9.220;2023-03-20T04:33:27;94420.06;;;3.73;97.44
73600;BME280;61877;48.246;9.220;2023-03-20T04:35:52;94414.59;;;3.65;96.84
73600;BME280;61877;48.246;9.220;2023-03-20T04:38:19;94421.22;;;3.67;97.35
73600;BME280;61877;48.246;9.220;2023-03-20T04:40:46;94413.84;;;3.64;97.19
73600;BME280;61877;48.246;9.220;2023-03-20T04:43:11;94423.88;;;3.67;97.04
73600;BME280;61877;48.246;9.220;2023-03-20T04:45:37;94421.16;;;3.72;97.23
73600;BME280;61877;48.246;9.220;2023-03-20T04:48:05;94421.09;;;3.77;97.11
73600;BME280;61877;48.246;9.220;2023-03-20T04:50:31;94415.78;;;3.77;96.59
73600;BME280;61877;48.246;9.220;2023-03-20T04:52:57;94416.78;;;3.81;96.82
73600;BME280;61877;48.246;9.220;2023-03-20T04:55:23;94408.88;;;3.95;96.14
73600;BME280;61877;48.246;9.220;2023-03-20T04:57:49;94403.78;;;3.98;94.10
73600;BME280;61877;48.246;9.220;2023-03-20T05:00:16;94399.84;;;3.96;95.64
73600;BME280;61877;48.246;9.220;2023-03-20T05:02:42;94400.16;;;3.94;95.25
73600;BME280;61877;48.246;9.220;2023-03-20T05:05:09;94392.75;;;3.91;95.56
73600;BME280;61877;48.246;9.220;2023-03-20T05:07:35;94396.25;;;3.87;95.61
73600;BME280;61877;48.246;9.220;2023-03-20T05:10:00;94401.34;;;3.83;96.35
73600;BME280;61877;48.246;9.220;2023-03-20T05:12:27;94409.97;;;3.75;96.66
73600;BME280;61877;48.246;9.220;2023-03-20T05:14:57;94408.63;;;3.78;96.69
73600;BME280;61877;48.246;9.220;2023-03-20T05:17:23;94408.47;;;3.69;96.95
73600;BME280;61877;48.246;9.220;2023-03-20T05:19:49;94415.50;;;3.79;96.96
73600;BME280;61877;48.246;9.220;2023-03-20T05:22:18;94409.31;;;3.83;97.67
73600;BME280;61877;48.246;9.220;2023-03-20T05:24:43;94416.69;;;3.86;97.33
73600;BME280;61877;48.246;9.220;2023-03-20T05:27:09;94418.28;;;3.87;97.03
73600;BME280;61877;48.246;9.220;2023-03-20T05:29:34;94419.56;;;3.90;97.09
73600;BME280;61877;48.246;9.220;2023-03-20T05:32:00;94416.56;;;3.96;97.51
73600;BME280;61877;48.246;9.220;2023-03-20T05:34:29;94424.22;;;3.98;97.21
73600;BME280;61877;48.246;9.220;2023-03-20T05:36:55;94429.16;;;4.05;97.52
73600;BME280;61877;48.246;9.220;2023-03-20T05:39:22;94437.28;;;4.13;97.64
73600;BME280;61877;48.246;9.220;2023-03-20T05:41:48;94433.19;;;4.21;97.25
73600;BME280;61877;48.246;9.220;2023-03-20T05:44:15;94444.50;;;4.26;96.93
73600;BME280;61877;48.246;9.220;2023-03-20T05:46:41;94439.69;;;4.28;96.70
73600;BME280;61877;48.246;9.220;2023-03-20T05:49:09;94442.06;;;4.30;96.62
73600;BME280;61877;48.246;9.220;2023-03-20T05:51:35;94443.50;;;4.41;95.89
73600;BME280;61877;48.246;9.220;2023-03-20T05:54:03;94445.28;;;4.45;95.97
73600;BME280;61877;48.246;9.220;2023-03-20T05:56:38;94437.78;;;4.34;96.11
73600;BME280;61877;48.246;9.220;2023-03-20T05:59:04;94440.78;;;4.46;96.61
73600;BME280;61877;48.246;9.220;2023-03-20T06:01:29;94432.44;;;4.52;96.96
73600;BME280;61877;48.246;9.220;2023-03-20T06:03:55;94432.56;;;4.61;96.88
73600;BME280;61877;48.246;9.220;2023-03-20T06:06:21;94435.28;;;4.56;95.88
73600;BME280;61877;48.246;9.220;2023-03-20T06:08:46;94433.94;;;4.72;95.20
73600;BME280;61877;48.246;9.220;2023-03-20T06:11:12;94437.69;;;4.84;95.59
73600;BME280;61877;48.246;9.220;2023-03-20T06:13:39;94433.22;;;4.98;94.92
73600;BME280;61877;48.246;9.220;2023-03-20T06:16:06;94440.31;;;5.16;94.35
73600;BME280;61877;48.246;9.220;2023-03-20T06:18:35;94447.22;;;5.31;93.75
73600;BME280;61877;48.246;9.220;2023-03-20T06:21:00;94437.56;;;5.35;92.96
73600;BME280;61877;48.246;9.220;2023-03-20T06:23:26;94447.41;;;5.48;93.25
73600;BME280;61877;48.246;9.220;2023-03-20T06:25:51;94451.94;;;5.48;92.57
73600;BME280;61877;48.246;9.220;2023-03-20T06:28:17;94465.16;;;5.53;92.42
73600;BME280;61877;48.246;9.220;2023-03-20T06:30:44;94463.78;;;5.55;93.08
73600;BME280;61877;48.246;9.220;2023-03-20T06:33:09;94457.66;;;5.55;93.72
73600;BME280;61877;48.246;9.220;2023-03-20T06:35:35;94463.38;;;5.48;94.13
73600;BME280;61877;48.246;9.220;2023-03-20T06:38:01;94471.88;;;5.50;94.63
73600;BME280;61877;48.246;9.220;2023-03-20T06:40:27;94470.16;;;5.54;95.11
73600;BME280;61877;48.246;9.220;2023-03-20T06:42:53;94464.94;;;5.63;94.74
73600;BME280;61877;48.246;9.220;2023-03-20T06:45:19;94472.13;;;5.62;93.92
73600;BME280;61877;48.246;9.220;2023-03-20T06:47:47;94472.72;;;5.73;93.53
73600;BME280;61877;48.246;9.220;2023-03-20T06:50:13;94472.94;;;5.76;93.94
73600;BME280;61877;48.246;9.220;2023-03-20T06:52:39;94472.13;;;5.76;94.46
73600;BME280;61877;48.246;9.220;2023-03-20T06:55:05;94475.41;;;5.86;94.41
73600;BME280;61877;48.246;9.220;2023-03-20T06:57:31;94474.41;;;5.96;94.39
73600;BME280;61877;48.246;9.220;2023-03-20T06:59:56;94481.97;;;6.02;93.32
73600;BME280;61877;48.246;9.220;2023-03-20T07:02:22;94469.06;;;6.09;93.41
73600;BME280;61877;48.246;9.220;2023-03-20T07:04:49;94468.34;;;6.17;92.74
73600;BME280;61877;48.246;9.220;2023-03-20T07:07:17;94466.84;;;6.25;92.41
73600;BME280;61877;48.246;9.220;2023-03-20T07:09:42;94463.88;;;6.26;92.44
73600;BME280;61877;48.246;9.220;2023-03-20T07:12:10;94457.72;;;6.39;91.83
73600;BME280;61877;48.246;9.220;2023-03-20T07:14:36;94463.59;;;6.50;90.52
73600;BME280;61877;48.246;9.220;2023-03-20T07:17:02;94465.44;;;6.63;91.44
73600;BME280;61877;48.246;9.220;2023-03-20T07:19:27;94470.41;;;6.78;91.25
73600;BME280;61877;48.246;9.220;2023-03-20T07:21:58;94469.97;;;6.85;89.95
73600;BME280;61877;48.246;9.220;2023-03-20T07:24:24;94467.38;;;7.02;89.87
73600;BME280;61877;48.246;9.220;2023-03-20T07:26:50;94458.69;;;7.18;90.69
73600;BME280;61877;48.246;9.220;2023-03-20T07:29:19;94450.50;;;7.15;89.93
73600;BME280;61877;48.246;9.220;2023-03-20T07:31:45;94458.56;;;7.23;88.66
73600;BME280;61877;48.246;9.220;2023-03-20T07:34:11;94469.63;;;7.39;87.67
73600;BME280;61877;48.246;9.220;2023-03-20T07:36:37;94467.69;;;7.70;87.19
73600;BME280;61877;48.246;9.220;2023-03-20T07:39:04;94462.44;;;7.96;85.90
73600;BME280;61877;48.246;9.220;2023-03-20T07:41:42;94478.78;;;8.03;84.80
73600;BME280;61877;48.246;9.220;2023-03-20T07:44:12;94481.47;;;8.11;83.74
73600;BME280;61877;48.246;9.220;2023-03-20T07:46:44;94481.50;;;8.20;82.56
73600;BME280;61877;48.246;9.220;2023-03-20T07:49:12;94475.56;;;8.40;82.78
73600;BME280;61877;48.246;9.220;2023-03-20T07:51:42;94484.25;;;8.54;82.71
73600;BME280;61877;48.246;9.220;2023-03-20T07:54:09;94483.47;;;8.70;83.15
73600;BME280;61877;48.246;9.220;2023-03-20T07:56:40;94487.38;;;8.56;81.10
73600;BME280;61877;48.246;9.220;2023-03-20T07:59:14;94493.19;;;8.32;82.83
73600;BME280;61877;48.246;9.220;2023-03-20T08:01:54;94500.03;;;8.16;81.30
73600;BME280;61877;48.246;9.220;2023-03-20T08:04:31;94493.28;;;8.10;79.58
73600;BME280;61877;48.246;9.220;2023-03-20T08:07:11;94496.16;;;8.31;79.93
73600;BME280;61877;48.246;9.220;2023-03-20T08:09:50;94485.78;;;8.38;78.60
73600;BME280;61877;48.246;9.220;2023-03-20T08:12:24;94489.72;;;8.40;79.22
73600;BME280;61877;48.246;9.220;2023-03-20T08:17:43;94485.97;;;8.50;76.98
73600;BME280;61877;48.246;9.220;2023-03-20T08:20:27;94488.81;;;8.62;77.57
73600;BME280;61877;48.246;9.220;2023-03-20T08:22:52;94479.19;;;8.61;77.36
73600;BME280;61877;48.246;9.220;2023-03-20T08:25:19;94487.06;;;8.83;79.28
73600;BME280;61877;48.246;9.220;2023-03-20T08:27:45;94482.34;;;8.88;78.53
73600;BME280;61877;48.246;9.220;2023-03-20T08:30:11;94487.22;;;8.86;78.06
73600;BME280;61877;48.246;9.220;2023-03-20T08:32:37;94489.41;;;8.93;76.76
73600;BME280;61877;48.246;9.220;2023-03-20T08:35:03;94482.94;;;8.85;77.19
73600;BME280;61877;48.246;9.220;2023-03-20T08:37:30;94496.78;;;8.96;76.09
73600;BME280;61877;48.246;9.220;2023-03-20T08:40:00;94491.44;;;8.96;76.79
73600;BME280;61877;48.246;9.220;2023-03-20T08:42:27;94497.44;;;8.93;77.28
73600;BME280;61877;48.246;9.220;2023-03-20T08:44:55;94500.44;;;8.91;77.19
73600;BME280;61877;48.246;9.220;2023-03-20T08:47:55;94495.06;;;8.74;75.98
73600;BME280;61877;48.246;9.220;2023-03-20T08:50:21;94493.84;;;8.80;77.51
73600;BME280;61877;48.246;9.220;2023-03-20T08:54:27;94494.00;;;8.67;75.64
73600;BME280;61877;48.246;9.220;2023-03-20T08:59:34;94494.13;;;8.87;73.70
73600;BME280;61877;48.246;9.220;2023-03-20T09:02:29;94494.28;;;8.82;75.59
73600;BME280;61877;48.246;9.220;2023-03-20T09:07:24;94490.22;;;8.85;73.70
73600;BME280;61877;48.246;9.220;2023-03-20T09:09:49;94497.59;;;8.88;71.83
73600;BME280;61877;48.246;9.220;2023-03-20T09:12:15;94496.97;;;8.82;69.67
73600;BME280;61877;48.246;9.220;2023-03-20T09:14:41;94500.91;;;8.68;71.52
73600;BME280;61877;48.246;9.220;2023-03-20T09:17:07;94511.28;;;8.69;71.10
73600;BME280;61877;48.246;9.220;2023-03-20T09:19:33;94504.38;;;8.68;72.44
73600;BME280;61877;48.246;9.220;2023-03-20T09:21:59;94496.81;;;8.62;72.94
73600;BME280;61877;48.246;9.220;2023-03-20T09:24:25;94500.59;;;8.69;72.85
73600;BME280;61877;48.246;9.220;2023-03-20T09:26:50;94500.91;;;8.76;72.58
73600;BME280;61877;48.246;9.220;2023-03-20T09:29:16;94504.97;;;9.08;74.15
73600;BME280;61877;48.246;9.220;2023-03-20T09:31:43;94503.50;;;9.28;71.73
73600;BME280;61877;48.246;9.220;2023-03-20T09:34:09;94501.53;;;9.54;71.70
73600;BME280;61877;48.246;9.220;2023-03-20T09:36:34;94496.69;;;9.47;68.85
73600;BME280;61877;48.246;9.220;2023-03-20T09:39:00;94494.97;;;9.43;69.96
73600;BME280;61877;48.246;9.220;2023-03-20T09:41:26;94501.84;;;9.61;69.56
73600;BME280;61877;48.246;9.220;2023-03-20T09:44:04;94497.84;;;9.75;68.32
73600;BME280;61877;48.246;9.220;2023-03-20T09:46:49;94491.91;;;9.99;69.23
73600;BME280;61877;48.246;9.220;2023-03-20T09:49:22;94494.25;;;10.00;66.39
73600;BME280;61877;48.246;9.220;2023-03-20T09:51:52;94494.81;;;9.85;65.05
73600;BME280;61877;48.246;9.220;2023-03-20T09:54:24;94498.53;;;10.01;66.54
73600;BME280;61877;48.246;9.220;2023-03-20T09:56:51;94507.28;;;10.19;65.64
73600;BME280;61877;48.246;9.220;2023-03-20T09:59:19;94499.78;;;10.04;62.03
73600;BME280;61877;48.246;9.220;2023-03-20T10:01:49;94494.59;;;9.99;61.97
73600;BME280;61877;48.246;9.220;2023-03-20T10:04:16;94499.00;;;9.66;62.70
73600;BME280;61877;48.246;9.220;2023-03-20T10:06:42;94506.16;;;9.91;62.94
73600;BME280;61877;48.246;9.220;2023-03-20T10:09:14;94497.72;;;10.09;61.74
73600;BME280;61877;48.246;9.220;2023-03-20T10:11:58;94503.72;;;10.35;63.27
73600;BME280;61877;48.246;9.220;2023-03-20T10:14:33;94499.53;;;9.88;63.39
73600;BME280;61877;48.246;9.220;2023-03-20T10:17:14;94498.97;;;10.41;62.24
73600;BME280;61877;48.246;9.220;2023-03-20T10:19:50;94494.13;;;10.76;61.38
73600;BME280;61877;48.246;9.220;2023-03-20T10:22:20;94491.78;;;10.74;60.59
73600;BME280;61877;48.246;9.220;2023-03-20T10:24:53;94495.41;;;11.11;60.32
73600;BME280;61877;48.246;9.220;2023-03-20T10:27:23;94496.34;;;10.94;59.34
73600;BME280;61877;48.246;9.220;2023-03-20T10:29:55;94497.38;;;10.81;60.07
73600;BME280;61877;48.246;9.220;2023-03-20T10:32:29;94496.22;;;10.91;59.14
73600;BME280;61877;48.246;9.220;2023-03-20T10:35:12;94491.09;;;10.98;58.75
73600;BME280;61877;48.246;9.220;2023-03-20T10:37:51;94497.13;;;10.95;57.74
73600;BME280;61877;48.246;9.220;2023-03-20T10:40:26;94493.28;;;11.16;60.22
73600;BME280;61877;48.246;9.220;2023-03-20T10:42:55;94486.66;;;11.46;60.20
73600;BME280;61877;48.246;9.220;2023-03-20T10:45:33;94482.72;;;11.77;56.93
73600;BME280;61877;48.246;9.220;2023-03-20T10:48:08;94485.41;;;12.01;58.18
73600;BME280;61877;48.246;9.220;2023-03-20T10:50:39;94481.38;;;11.95;56.90
73600;BME280;61877;48.246;9.220;2023-03-20T10:53:07;94482.31;;;11.99;58.23
73600;BME280;61877;48.246;9.220;2023-03-20T10:55:36;94491.25;;;11.79;56.25
73600;BME280;61877;48.246;9.220;2023-03-20T10:58:10;94488.53;;;11.66;56.52
73600;BME280;61877;48.246;9.220;2023-03-20T11:00:38;94489.34;;;11.46;57.58
73600;BME280;61877;48.246;9.220;2023-03-20T11:03:06;94497.19;;;11.51;57.19
73600;BME280;61877;48.246;9.220;2023-03-20T11:05:34;94493.72;;;11.51;59.32
73600;BME280;61877;48.246;9.220;2023-03-20T11:08:01;94504.25;;;11.44;56.95
73600;BME280;61877;48.246;9.220;2023-03-20T11:10:30;94502.63;;;10.98;56.35
73600;BME280;61877;48.246;9.220;2023-03-20T11:13:11;94501.25;;;10.72;58.19
73600;BME280;61877;48.246;9.220;2023-03-20T11:15:38;94494.91;;;10.76;59.45
73600;BME280;61877;48.246;9.220;2023-03-20T11:18:08;94493.06;;;10.68;58.84
73600;BME280;61877;48.246;9.220;2023-03-20T11:20:39;94495.44;;;10.90;60.94
73600;BME280;61877;48.246;9.220;2023-03-20T11:23:14;94499.19;;;11.10;61.76
73600;BME280;61877;48.246;9.220;2023-03-20T11:25:47;94501.66;;;11.35;60.68
73600;BME280;61877;48.246;9.220;2023-03-20T11:28:32;94493.97;;;11.58;58.16
73600;BME280;61877;48.246;9.220;2023-03-20T11:31:00;94492.91;;;11.38;56.33
73600;BME280;61877;48.246;9.220;2023-03-20T11:33:29;94491.81;;;11.51;54.76
73600;BME280;61877;48.246;9.220;2023-03-20T11:35:57;94496.06;;;11.40;57.19
73600;BME280;61877;48.246;9.220;2023-03-20T11:38:23;94501.19;;;11.33;55.25
73600;BME280;61877;48.246;9.220;2023-03-20T11:40:50;94494.38;;;11.48;56.85
73600;BME280;61877;48.246;9.220;2023-03-20T11:43:18;94492.97;;;11.62;56.27
73600;BME280;61877;48.246;9.220;2023-03-20T11:45:46;94493.38;;;11.40;55.21
73600;BME280;61877;48.246;9.220;2023-03-20T11:48:18;94491.50;;;11.53;56.12
73600;BME280;61877;48.246;9.220;2023-03-20T11:50:47;94488.78;;;11.74;56.49
73600;BME280;61877;48.246;9.220;2023-03-20T11:53:24;94491.78;;;11.84;57.01
73600;BME280;61877;48.246;9.220;2023-03-20T11:56:04;94487.44;;;11.92;54.87
73600;BME280;61877;48.246;9.220;2023-03-20T11:58:31;94486.31;;;11.93;54.88
73600;BME280;61877;48.246;9.220;2023-03-20T12:00:57;94482.97;;;12.20;54.35
73600;BME280;61877;48.246;9.220;2023-03-20T12:03:43;94487.53;;;12.31;54.41
73600;BME280;61877;48.246;9.220;2023-03-20T12:06:15;94481.59;;;12.26;54.50
73600;BME280;61877;48.246;9.220;2023-03-20T12:08:49;94478.91;;;12.38;54.31
73600;BME280;61877;48.246;9.220;2023-03-20T12:11:25;94473.53;;;12.38;53.10
73600;BME280;61877;48.246;9.220;2023-03-20T12:13:58;94474.88;;;11.96;55.11
73600;BME280;61877;48.246;9.220;2023-03-20T12:16:24;94474.44;;;12.06;55.59
73600;BME280;61877;48.246;9.220;2023-03-20T12:18:54;94476.09;;;11.74;55.31
73600;BME280;61877;48.246;9.220;2023-03-20T12:21:26;94474.88;;;11.72;54.72
73600;BME280;61877;48.246;9.220;2023-03-20T12:23:58;94472.31;;;11.75;54.60
73600;BME280;61877;48.246;9.220;2023-03-20T12:26:31;94462.81;;;11.45;56.36
73600;BME280;61877;48.246;9.220;2023-03-20T12:29:03;94476.47;;;11.97;54.78
73600;BME280;61877;48.246;9.220;2023-03-20T12:31:37;94466.16;;;12.11;53.82
73600;BME280;61877;48.246;9.220;2023-03-20T12:34:06;94465.47;;;12.26;53.97
73600;BME280;61877;48.246;9.220;2023-03-20T12:36:37;94459.81;;;12.94;52.19
73600;BME280;61877;48.246;9.220;2023-03-20T12:39:04;94455.94;;;12.80;52.06
73600;BME280;61877;48.246;9.220;2023-03-20T12:41:38;94450.50;;;13.47;50.49
73600;BME280;61877;48.246;9.220;2023-03-20T12:44:15;94449.84;;;13.38;50.41
73600;BME280;61877;48.246;9.220;2023-03-20T12:46:46;94440.50;;;13.79;51.33
73600;BME280;61877;48.246;9.220;2023-03-20T12:49:26;94444.94;;;14.53;47.59
73600;BME280;61877;48.246;9.220;2023-03-20T12:52:00;94452.19;;;13.24;48.44
73600;BME280;61877;48.246;9.220;2023-03-20T12:55:03;94439.53;;;13.71;48.80
73600;BME280;61877;48.246;9.220;2023-03-20T12:57:35;94449.50;;;12.96;50.73
73600;BME280;61877;48.246;9.220;2023-03-20T13:00:12;94434.34;;;12.64;52.24
73600;BME280;61877;48.246;9.220;2023-03-20T13:02:53;94437.03;;;13.78;49.30
73600;BME280;61877;48.246;9.220;2023-03-20T13:05:32;94439.44;;;13.37;48.28
73600;BME280;61877;48.246;9.220;2023-03-20T13:08:16;94438.53;;;12.50;50.49
73600;BME280;61877;48.246;9.220;2023-03-20T13:10:54;94437.94;;;12.56;50.14
73600;BME280;61877;48.246;9.220;2023-03-20T13:13:29;94434.66;;;12.23;51.74
73600;BME280;61877;48.246;9.220;2023-03-20T13:16:05;94432.94;;;12.43;50.56
73600;BME280;61877;48.246;9.220;2023-03-20T13:18:46;94426.75;;;12.82;49.43
73600;BME280;61877;48.246;9.220;2023-03-20T13:21:21;94427.00;;;12.77;50.92
73600;BME280;61877;48.246;9.220;2023-03-20T13:23:55;94421.25;;;12.78;49.77
73600;BME280;61877;48.246;9.220;2023-03-20T13:26:32;94425.47;;;13.04;50.63
73600;BME280;61877;48.246;9.220;2023-03-20T13:29:07;94421.22;;;13.03;49.89
73600;BME280;61877;48.246;9.220;2023-03-20T13:31:42;94415.63;;;13.54;48.55
73600;BME280;61877;48.246;9.220;2023-03-20T13:34:22;94421.78;;;13.55;46.57
73600;BME280;61877;48.246;9.220;2023-03-20T13:36:57;94420.44;;;13.61;49.69